createdAt,value
2018-07-28T00:02:27.110Z,11.83
2018-07-28T00:04:56.463Z,14.60
2018-07-28T00:07:24.674Z,11.50
2018-07-28T00:09:52.637Z,10.23
2018-07-28T00:12:21.916Z,13.43
2018-07-28T00:14:50.112Z,12.07
2018-07-28T00:17:18.338Z,14.03
2018-07-28T00:19:46.530Z,11.83
2018-07-28T00:22:14.730Z,12.20
2018-07-28T00:24:42.953Z,14.40
2018-07-28T00:29:44.873Z,12.10
2018-07-28T00:32:13.063Z,18.77
2018-07-28T00:34:41.259Z,14.27
2018-07-28T00:37:09.440Z,11.77
2018-07-28T00:39:37.403Z,12.78
2018-07-28T00:42:06.242Z,11.63
2018-07-28T00:44:34.467Z,13.65
2018-07-28T00:47:02.665Z,13.13
2018-07-28T00:49:31.198Z,15.90
2018-07-28T00:51:59.379Z,14.30
2018-07-28T00:54:27.598Z,14.80
2018-07-28T00:56:55.829Z,16.93
2018-07-28T00:59:24.011Z,12.07
2018-07-28T01:01:52.039Z,18.50
2018-07-28T01:04:20.259Z,16.67
2018-07-28T01:06:48.489Z,13.28
2018-07-28T01:09:16.709Z,15.67
2018-07-28T01:11:44.916Z,15.25
2018-07-28T01:14:16.926Z,17.25
2018-07-28T01:16:45.461Z,13.68
2018-07-28T01:19:14.992Z,15.40
2018-07-28T01:21:43.219Z,13.60
2018-07-28T01:24:11.475Z,21.48
2018-07-28T01:26:40.376Z,17.48
2018-07-28T01:29:17.114Z,15.90
2018-07-28T01:31:46.279Z,13.83
2018-07-28T01:34:14.522Z,17.52
2018-07-28T01:36:42.810Z,17.35
2018-07-28T01:39:13.475Z,16.25
2018-07-28T01:41:42.558Z,14.25
2018-07-28T01:44:11.860Z,18.80
2018-07-28T01:46:43.672Z,14.77
2018-07-28T01:49:12.270Z,18.12
2018-07-28T01:51:40.475Z,14.63
2018-07-28T01:54:08.706Z,19.73
2018-07-28T01:56:37.188Z,16.10
2018-07-28T01:59:05.441Z,13.50
2018-07-28T02:01:33.640Z,13.07
2018-07-28T02:04:01.828Z,16.63
2018-07-28T02:06:30.052Z,15.90
2018-07-28T02:08:58.272Z,14.30
2018-07-28T02:11:26.618Z,14.63
2018-07-28T02:13:54.839Z,13.10
2018-07-28T02:16:23.024Z,17.85
2018-07-28T02:18:51.258Z,15.60
2018-07-28T02:21:19.429Z,16.57
2018-07-28T02:23:47.639Z,17.90
2018-07-28T02:26:16.033Z,13.80
2018-07-28T02:28:44.272Z,17.53
2018-07-28T02:31:17.142Z,15.20
2018-07-28T02:33:45.320Z,16.13
2018-07-28T02:36:13.503Z,15.70
2018-07-28T02:38:41.672Z,14.40
2018-07-28T02:41:09.888Z,15.73
2018-07-28T02:43:38.078Z,17.33
2018-07-28T02:46:10.578Z,18.77
2018-07-28T02:48:42.352Z,19.20
2018-07-28T02:51:10.533Z,15.13
2018-07-28T02:53:43.968Z,13.20
2018-07-28T02:56:14.021Z,14.90
2018-07-28T02:58:42.968Z,16.60
2018-07-28T03:01:15.419Z,18.80
2018-07-28T03:03:47.964Z,14.67
2018-07-28T03:06:16.180Z,17.33
2018-07-28T03:08:45.410Z,16.57
2018-07-28T03:11:14.263Z,17.10
2018-07-28T03:13:42.631Z,14.83
2018-07-28T03:16:17.355Z,19.03
2018-07-28T03:18:49.931Z,16.00
2018-07-28T03:21:18.104Z,21.25
2018-07-28T03:23:46.298Z,14.53
2018-07-28T03:26:15.424Z,15.15
2018-07-28T03:28:43.650Z,21.57
2018-07-28T03:31:11.827Z,16.33
2018-07-28T03:33:44.550Z,18.37
2018-07-28T03:36:12.764Z,19.73
2018-07-28T03:38:40.975Z,17.90
2018-07-28T03:41:09.179Z,15.20
2018-07-28T03:43:37.522Z,14.17
2018-07-28T03:46:06.095Z,15.20
2018-07-28T03:48:38.655Z,15.70
2018-07-28T03:51:06.861Z,14.73
2018-07-28T03:53:35.936Z,20.34
2018-07-28T03:56:04.253Z,13.50
2018-07-28T03:58:32.440Z,14.30
2018-07-28T04:01:00.858Z,14.50
2018-07-28T04:03:36.099Z,13.57
2018-07-28T04:06:04.316Z,16.93
2018-07-28T04:08:32.507Z,18.13
2018-07-28T04:11:01.100Z,17.45
2018-07-28T04:13:29.297Z,16.05
2018-07-28T04:15:57.501Z,17.80
2018-07-28T04:18:30.483Z,13.90
2018-07-28T04:20:58.700Z,15.50
2018-07-28T04:23:26.962Z,14.90
2018-07-28T04:25:55.154Z,15.78
2018-07-28T04:28:23.478Z,14.77
2018-07-28T04:30:51.492Z,18.85
2018-07-28T04:33:19.699Z,15.93
2018-07-28T04:35:47.928Z,16.43
2018-07-28T04:38:16.117Z,18.65
2018-07-28T04:40:44.298Z,14.25
2018-07-28T04:43:12.552Z,18.20
2018-07-28T04:45:40.947Z,16.10
2018-07-28T04:48:12.646Z,15.33
2018-07-28T04:50:41.355Z,14.30
2018-07-28T04:53:09.536Z,14.27
2018-07-28T04:55:37.771Z,16.07
2018-07-28T04:58:06.168Z,12.67
2018-07-28T05:00:34.380Z,13.93
2018-07-28T05:03:05.298Z,11.20
2018-07-28T05:05:33.487Z,10.90
2018-07-28T05:08:01.712Z,14.30
2018-07-28T05:10:30.845Z,11.83
2018-07-28T05:12:59.084Z,12.53
2018-07-28T05:15:27.308Z,13.73
2018-07-28T05:18:02.916Z,14.53
2018-07-28T05:20:31.911Z,16.55
2018-07-28T05:23:00.126Z,18.63
2018-07-28T05:25:28.339Z,13.80
2018-07-28T05:27:56.907Z,12.83
2018-07-28T05:30:25.140Z,15.80
2018-07-28T05:32:53.356Z,15.33
2018-07-28T05:35:21.608Z,17.07
2018-07-28T05:37:49.808Z,13.63
2018-07-28T05:40:18.024Z,14.13
2018-07-28T05:42:46.371Z,13.85
2018-07-28T05:45:14.576Z,12.93
2018-07-28T05:47:42.763Z,22.53
2018-07-28T05:50:11.088Z,14.80
2018-07-28T05:52:39.232Z,11.50
2018-07-28T05:55:07.199Z,12.20
2018-07-28T05:57:35.785Z,10.67
2018-07-28T06:00:04.839Z,11.27
2018-07-28T06:02:33.167Z,11.53
2018-07-28T06:05:01.255Z,11.13
2018-07-28T06:07:29.401Z,12.17
2018-07-28T06:09:57.632Z,15.43
2018-07-28T06:12:25.897Z,10.00
2018-07-28T06:14:55.030Z,8.83
2018-07-28T06:17:23.247Z,11.17
2018-07-28T06:19:51.802Z,10.33
2018-07-28T06:22:20.112Z,10.50
2018-07-28T06:24:48.279Z,9.53
2018-07-28T06:27:16.495Z,9.83
2018-07-28T06:29:44.693Z,9.38
2018-07-28T06:32:12.880Z,9.17
2018-07-28T06:34:45.647Z,10.10
2018-07-28T06:37:13.880Z,9.80
2018-07-28T06:39:42.092Z,8.80
2018-07-28T06:42:10.271Z,10.08
2018-07-28T06:44:38.524Z,11.43
2018-07-28T06:47:06.723Z,10.43
2018-07-28T06:49:39.602Z,13.13
2018-07-28T06:52:07.779Z,10.50
2018-07-28T06:54:35.967Z,9.27
2018-07-28T06:57:04.225Z,9.73
2018-07-28T06:59:32.480Z,9.73
2018-07-28T07:02:00.676Z,10.80
2018-07-28T07:04:28.851Z,9.95
2018-07-28T07:06:57.058Z,11.13
2018-07-28T07:09:25.245Z,9.87
2018-07-28T07:11:53.452Z,9.87
2018-07-28T07:14:21.688Z,10.33
2018-07-28T07:16:49.904Z,9.43
2018-07-28T07:19:18.080Z,10.53
2018-07-28T07:21:46.294Z,19.17
2018-07-28T07:24:14.479Z,11.07
2018-07-28T07:26:42.649Z,13.83
2018-07-28T07:29:10.849Z,9.30
2018-07-28T07:31:39.016Z,11.03
2018-07-28T07:34:07.546Z,8.83
2018-07-28T07:36:35.723Z,10.20
2018-07-28T07:39:05.076Z,8.90
2018-07-28T07:41:33.530Z,7.83
2018-07-28T07:44:01.744Z,8.43
2018-07-28T07:46:29.946Z,9.67
2018-07-28T07:48:58.316Z,10.18
2018-07-28T07:51:27.278Z,10.77
2018-07-28T07:53:55.865Z,11.50
2018-07-28T07:56:24.037Z,8.73
2018-07-28T07:58:53.159Z,10.78
2018-07-28T08:01:21.358Z,9.80
2018-07-28T08:03:49.644Z,8.27
2018-07-28T08:06:22.121Z,10.35
2018-07-28T08:08:50.959Z,8.60
2018-07-28T08:11:19.753Z,8.93
2018-07-28T08:13:51.384Z,12.90
2018-07-28T08:16:19.608Z,7.80
2018-07-28T08:18:47.791Z,7.85
2018-07-28T08:21:20.400Z,12.03
2018-07-28T08:23:52.680Z,8.43
2018-07-28T08:26:20.944Z,10.30
2018-07-28T08:48:11.776Z,9.20
2018-07-28T08:50:40.140Z,6.86
2018-07-28T08:53:08.328Z,10.00
2018-07-28T08:55:36.925Z,7.80
2018-07-28T08:58:05.163Z,7.90
2018-07-28T09:00:33.377Z,9.50
2018-07-28T09:03:01.657Z,8.63
2018-07-28T09:05:29.935Z,7.30
2018-07-28T09:07:58.143Z,8.73
2018-07-28T09:10:26.364Z,10.23
2018-07-28T09:12:54.575Z,5.83
2018-07-28T09:15:22.783Z,8.70
2018-07-28T09:17:51.023Z,7.87
2018-07-28T09:20:19.182Z,6.90
2018-07-28T09:22:47.388Z,5.83
2018-07-28T09:25:15.634Z,7.00
2018-07-28T09:27:43.879Z,6.20
2018-07-28T09:30:12.428Z,6.43
2018-07-28T09:32:40.640Z,6.90
2018-07-28T09:35:08.842Z,7.37
2018-07-28T09:37:41.328Z,6.42
2018-07-28T09:40:09.617Z,6.10
2018-07-28T09:42:37.821Z,7.90
2018-07-28T09:45:06.332Z,7.20
2018-07-28T09:47:34.603Z,6.20
2018-07-28T09:50:04.536Z,4.78
2018-07-28T09:52:36.059Z,9.33
2018-07-28T09:55:04.586Z,6.03
2018-07-28T09:57:32.774Z,6.13
2018-07-28T10:00:01.003Z,5.90
2018-07-28T10:02:29.270Z,7.47
2018-07-28T10:04:57.542Z,6.03
2018-07-28T10:07:25.789Z,5.97
2018-07-28T10:09:57.043Z,9.00
2018-07-28T10:12:25.275Z,7.77
2018-07-28T10:14:54.908Z,9.40
2018-07-28T10:17:23.428Z,5.90
2018-07-28T10:19:51.607Z,4.72
2018-07-28T10:22:19.888Z,5.92
2018-07-28T10:24:48.703Z,6.28
2018-07-28T10:27:16.959Z,5.07
2018-07-28T10:29:44.927Z,5.10
2018-07-28T10:32:13.603Z,4.57
2018-07-28T10:34:41.888Z,6.00
2018-07-28T10:37:10.087Z,5.53
2018-07-28T10:39:41.796Z,6.97
2018-07-28T10:42:09.971Z,5.37
2018-07-28T10:44:38.715Z,7.85
2018-07-28T10:47:06.929Z,8.00
2018-07-28T10:49:35.132Z,6.70
2018-07-28T10:52:03.487Z,10.58
2018-07-28T10:54:34.821Z,6.00
2018-07-28T10:57:03.050Z,7.80
2018-07-28T10:59:31.341Z,7.70
2018-07-28T11:02:00.201Z,4.58
2018-07-28T11:04:28.533Z,5.45
2018-07-28T11:06:56.752Z,6.73
2018-07-28T11:09:24.702Z,8.93
2018-07-28T11:11:53.349Z,5.80
2018-07-28T11:14:21.543Z,8.15
2018-07-28T11:16:49.740Z,5.47
2018-07-28T11:19:18.185Z,7.70
2018-07-28T11:21:46.411Z,6.65
2018-07-28T11:24:14.649Z,7.08
2018-07-28T11:26:42.860Z,8.20
2018-07-28T11:29:11.061Z,5.77
2018-07-28T11:31:50.616Z,6.57
2018-07-28T11:34:30.576Z,6.42
2018-07-28T11:37:10.244Z,5.62
2018-07-28T11:39:49.620Z,7.37
2018-07-28T11:42:29.170Z,7.90
2018-07-28T11:45:10.029Z,5.65
2018-07-28T11:47:38.819Z,5.47
2018-07-28T11:50:07.748Z,7.73
2018-07-28T11:52:35.966Z,7.60
2018-07-28T11:55:04.260Z,6.03
2018-07-28T11:57:32.452Z,8.50
2018-07-28T12:00:00.671Z,8.93
2018-07-28T12:02:28.868Z,5.00
2018-07-28T12:04:57.769Z,5.23
2018-07-28T12:07:25.962Z,10.33
2018-07-28T12:09:58.131Z,4.97
2018-07-28T12:12:26.330Z,5.50
2018-07-28T12:14:54.688Z,6.13
2018-07-28T12:17:23.580Z,7.23
2018-07-28T12:19:51.800Z,5.57
2018-07-28T12:22:20.292Z,6.23
2018-07-28T12:24:48.600Z,7.13
2018-07-28T12:27:16.787Z,6.53
2018-07-28T12:29:45.036Z,7.87
2018-07-28T12:32:13.221Z,5.57
2018-07-28T12:34:41.519Z,6.20
2018-07-28T12:37:09.622Z,4.90
2018-07-28T12:39:37.805Z,9.70
2018-07-28T12:42:06.026Z,5.20
2018-07-28T12:44:34.227Z,5.40
2018-07-28T12:47:02.427Z,5.45
2018-07-28T12:49:30.673Z,6.37
2018-07-28T12:51:59.223Z,6.05
2018-07-28T12:54:27.375Z,6.60
2018-07-28T12:56:55.607Z,4.60
2018-07-28T12:59:23.824Z,4.50
2018-07-28T13:01:52.096Z,3.80
2018-07-28T13:04:20.895Z,8.60
2018-07-28T13:06:49.098Z,4.03
2018-07-28T13:09:17.431Z,5.97
2018-07-28T13:11:46.623Z,4.40
2018-07-28T13:14:14.896Z,4.60
2018-07-28T13:16:43.580Z,4.22
2018-07-28T13:19:11.867Z,5.00
2018-07-28T13:21:40.155Z,7.10
2018-07-28T13:24:08.350Z,5.27
2018-07-28T13:26:37.315Z,6.10
2018-07-28T13:29:05.903Z,4.33
2018-07-28T13:31:34.199Z,7.80
2018-07-28T13:34:02.161Z,3.83
2018-07-28T13:36:30.795Z,4.67
2018-07-28T13:38:59.045Z,10.70
2018-07-28T13:41:27.545Z,5.40
2018-07-28T13:43:55.944Z,4.83
2018-07-28T13:46:24.170Z,6.55
2018-07-28T13:48:52.385Z,4.53
2018-07-28T13:51:20.880Z,4.73
2018-07-28T13:53:49.055Z,4.43
2018-07-28T13:56:17.349Z,4.33
2018-07-28T13:58:45.537Z,4.12
2018-07-28T14:01:13.984Z,4.50
2018-07-28T14:03:42.263Z,3.60
2018-07-28T14:06:10.758Z,3.20
2018-07-28T14:08:39.851Z,3.30
2018-07-28T14:11:08.388Z,3.27
2018-07-28T14:13:36.682Z,3.50
2018-07-28T14:16:04.989Z,3.83
2018-07-28T14:18:33.513Z,4.97
2018-07-28T14:21:01.632Z,4.17
2018-07-28T14:23:29.842Z,8.03
2018-07-28T14:25:58.027Z,6.03
2018-07-28T14:28:26.266Z,4.40
2018-07-28T14:30:54.790Z,3.80
2018-07-28T14:33:23.661Z,5.93
2018-07-28T14:35:51.916Z,3.40
2018-07-28T14:38:20.159Z,5.13
2018-07-28T14:40:48.568Z,3.93
2018-07-28T14:43:20.832Z,6.77
2018-07-28T14:45:49.181Z,5.33
2018-07-28T14:48:17.343Z,4.50
2018-07-28T14:50:45.618Z,3.87
2018-07-28T14:53:14.264Z,3.80
2018-07-28T14:55:42.460Z,4.80
2018-07-28T14:58:10.634Z,4.10
2018-07-28T15:00:43.079Z,3.60
2018-07-28T15:03:11.259Z,2.90
2018-07-28T15:05:39.472Z,7.53
2018-07-28T15:08:07.709Z,5.13
2018-07-28T15:10:35.893Z,4.55
2018-07-28T15:13:08.043Z,3.98
2018-07-28T15:15:39.496Z,4.60
2018-07-28T15:18:07.701Z,8.48
2018-07-28T15:20:35.916Z,9.83
2018-07-28T15:25:29.516Z,5.10
2018-07-28T15:28:00.802Z,7.60
2018-07-28T15:30:33.347Z,4.40
2018-07-28T15:33:01.544Z,5.37
2018-07-28T15:35:30.122Z,5.20
2018-07-28T15:37:58.347Z,5.63
2018-07-28T15:40:27.490Z,4.77
2018-07-28T15:42:55.681Z,5.62
2018-07-28T15:45:23.844Z,4.20
2018-07-28T15:47:52.300Z,5.58
2018-07-28T15:50:20.405Z,4.63
2018-07-28T15:52:48.636Z,3.87
2018-07-28T15:55:16.799Z,4.58
2018-07-28T15:57:45.207Z,8.07
2018-07-28T16:00:15.316Z,8.83
2018-07-28T16:02:43.467Z,4.73
2018-07-28T16:05:11.660Z,5.63
2018-07-28T16:07:40.358Z,5.47
2018-07-28T16:10:09.274Z,6.67
2018-07-28T16:12:37.479Z,4.73
2018-07-28T16:15:09.849Z,7.07
2018-07-28T16:17:38.002Z,6.30
2018-07-28T16:20:06.367Z,9.13
2018-07-28T16:22:34.679Z,6.97
2018-07-28T16:25:02.920Z,9.50
2018-07-28T16:27:31.079Z,8.60
2018-07-28T16:30:04.059Z,5.27
2018-07-28T16:32:32.231Z,13.57
2018-07-28T16:35:00.418Z,4.85
2018-07-28T16:37:28.615Z,7.77
2018-07-28T16:39:56.863Z,8.20
2018-07-28T16:42:25.052Z,6.47
2018-07-28T16:44:57.814Z,9.18
2018-07-28T16:47:26.007Z,10.50
2018-07-28T16:49:55.035Z,9.25
2018-07-28T16:52:23.218Z,8.93
2018-07-28T16:54:51.411Z,11.00
2018-07-28T16:57:19.882Z,5.60
2018-07-28T16:59:51.075Z,4.37
2018-07-28T17:02:20.207Z,5.50
2018-07-28T17:04:48.436Z,4.93
2018-07-28T17:07:16.577Z,6.42
2018-07-28T17:09:44.696Z,7.77
2018-07-28T17:12:12.931Z,5.57
2018-07-28T17:14:46.646Z,4.20
2018-07-28T17:17:15.800Z,4.53
2018-07-28T17:19:44.015Z,3.77
2018-07-28T17:22:12.208Z,5.87
2018-07-28T17:24:40.443Z,6.70
2018-07-28T17:27:08.640Z,4.58
2018-07-28T17:29:36.798Z,4.90
2018-07-28T17:32:05.198Z,11.20
2018-07-28T17:34:33.453Z,10.30
2018-07-28T17:37:01.620Z,4.80
2018-07-28T17:39:29.795Z,5.23
2018-07-28T17:41:58.004Z,10.30
2018-07-28T17:44:26.236Z,5.42
2018-07-28T17:46:54.879Z,6.08
2018-07-28T17:49:23.071Z,4.23
2018-07-28T17:51:51.244Z,5.40
2018-07-28T17:54:19.474Z,4.03
2018-07-28T17:56:47.696Z,4.07
2018-07-28T17:59:15.939Z,4.63
2018-07-28T18:01:44.087Z,6.10
2018-07-28T18:04:12.368Z,10.63
2018-07-28T18:06:40.547Z,7.27
2018-07-28T18:09:09.586Z,5.83
2018-07-28T18:11:38.383Z,5.10
2018-07-28T18:14:06.800Z,9.20
2018-07-28T18:16:38.308Z,5.70
2018-07-28T18:19:06.532Z,5.95
2018-07-28T18:21:34.708Z,6.67
2018-07-28T18:24:02.889Z,5.80
2018-07-28T18:26:31.142Z,11.60
2018-07-28T18:28:59.351Z,9.43
2018-07-28T18:31:31.431Z,7.22
2018-07-28T18:33:59.618Z,7.47
2018-07-28T18:36:27.824Z,5.93
2018-07-28T18:38:56.040Z,6.60
2018-07-28T18:41:24.248Z,10.20
2018-07-28T18:43:52.472Z,6.97
2018-07-28T18:46:23.712Z,8.17
2018-07-28T18:48:51.970Z,8.20
2018-07-28T18:51:20.186Z,10.40
2018-07-28T18:53:48.817Z,10.60
2018-07-28T18:56:17.059Z,8.53
2018-07-28T18:58:45.674Z,7.55
2018-07-28T19:01:13.870Z,6.97
2018-07-28T19:03:42.207Z,9.20
2018-07-28T19:06:10.147Z,7.07
2018-07-28T19:08:38.408Z,8.20
2018-07-28T19:11:07.384Z,6.60
2018-07-28T19:13:40.906Z,7.37
2018-07-28T19:16:09.175Z,6.53
2018-07-28T19:18:42.823Z,7.20
2018-07-28T19:21:11.164Z,6.55
2018-07-28T19:23:45.223Z,7.05
2018-07-28T19:26:13.423Z,7.10
2018-07-28T19:28:46.861Z,6.90
2018-07-28T19:31:16.033Z,8.20
2018-07-28T19:33:44.252Z,6.40
2018-07-28T19:36:17.903Z,6.50
2018-07-28T19:38:46.795Z,9.68
2018-07-28T19:41:14.971Z,7.55
2018-07-28T19:43:43.201Z,7.73
2018-07-28T19:46:11.632Z,8.33
2018-07-28T19:48:47.392Z,7.93
2018-07-28T19:51:15.596Z,6.67
2018-07-28T19:53:43.569Z,8.50
2018-07-28T19:56:12.527Z,13.90
2018-07-28T19:58:41.003Z,9.20
2018-07-28T20:01:10.528Z,13.40
2018-07-28T20:03:38.844Z,6.08
2018-07-28T20:06:11.803Z,10.40
2018-07-28T20:08:40.083Z,7.58
2018-07-28T20:11:08.307Z,14.00
2018-07-28T20:13:36.538Z,7.37
2018-07-28T20:16:05.601Z,11.05
2018-07-28T20:18:38.719Z,7.27
2018-07-28T20:21:06.965Z,7.97
2018-07-28T20:23:35.359Z,13.23
2018-07-28T20:26:03.872Z,6.70
2018-07-28T20:28:32.089Z,9.93
2018-07-28T20:31:00.336Z,8.13
2018-07-28T20:33:28.789Z,9.83
2018-07-28T20:35:57.383Z,7.67
2018-07-28T20:38:25.440Z,11.43
2018-07-28T20:40:53.764Z,8.07
2018-07-28T20:43:22.155Z,9.90
2018-07-28T20:45:50.471Z,12.03
2018-07-28T20:48:18.702Z,8.85
2018-07-28T20:50:51.011Z,7.93
2018-07-28T20:53:19.372Z,10.08
2018-07-28T20:55:48.360Z,10.73
2018-07-28T20:58:16.584Z,9.37
2018-07-28T21:00:44.855Z,8.00
2018-07-28T21:03:13.322Z,9.60
2018-07-28T21:05:45.685Z,9.45
2018-07-28T21:08:13.920Z,8.90
2018-07-28T21:10:42.140Z,11.60
2018-07-28T21:13:10.390Z,11.73
2018-07-28T21:15:38.589Z,15.20
2018-07-28T21:18:06.766Z,9.50
2018-07-28T21:20:38.753Z,9.60
2018-07-28T21:23:06.979Z,9.70
2018-07-28T21:25:35.195Z,7.90
2018-07-28T21:28:03.770Z,9.93
2018-07-28T21:30:31.927Z,8.97
2018-07-28T21:33:00.213Z,10.50
2018-07-28T21:35:32.592Z,13.80
2018-07-28T21:38:00.772Z,8.80
2018-07-28T21:40:28.994Z,9.73
2018-07-28T21:42:57.208Z,10.55
2018-07-28T21:45:25.386Z,10.10
2018-07-28T21:47:53.841Z,8.23
2018-07-28T21:50:22.035Z,10.20
2018-07-28T21:52:50.227Z,8.48
2018-07-28T21:55:18.459Z,7.70
2018-07-28T21:57:46.654Z,8.50
2018-07-28T22:00:14.862Z,9.63
2018-07-28T22:02:43.160Z,9.80
2018-07-28T22:05:15.501Z,8.50
2018-07-28T22:07:43.761Z,8.80
2018-07-28T22:10:11.946Z,8.30
2018-07-28T22:12:40.157Z,9.70
2018-07-28T22:15:08.398Z,9.03
2018-07-28T22:17:36.603Z,7.07
2018-07-28T22:20:06.383Z,8.37
2018-07-28T22:22:34.575Z,7.60
2018-07-28T22:25:03.075Z,13.78
2018-07-28T22:27:31.300Z,7.53
2018-07-28T22:29:59.493Z,8.10
2018-07-28T22:32:28.031Z,12.95
2018-07-28T22:34:56.192Z,8.20
2018-07-28T22:37:24.411Z,9.73
2018-07-28T22:39:52.634Z,11.80
2018-07-28T22:42:25.534Z,8.00
2018-07-28T22:44:54.220Z,9.43
2018-07-28T22:47:23.353Z,14.60
2018-07-28T22:49:51.595Z,7.00
2018-07-28T22:52:19.803Z,6.58
2018-07-28T22:54:48.001Z,6.70
2018-07-28T22:57:16.224Z,9.80
2018-07-28T22:59:44.395Z,8.20
2018-07-28T23:02:12.824Z,7.00
2018-07-28T23:04:41.051Z,11.45
2018-07-28T23:07:09.428Z,8.83
2018-07-28T23:09:37.620Z,7.83
2018-07-28T23:12:06.131Z,10.80
2018-07-28T23:14:34.339Z,11.53
2018-07-28T23:17:02.789Z,7.70
2018-07-28T23:19:30.990Z,8.25
2018-07-28T23:21:59.168Z,8.33
2018-07-28T23:24:27.372Z,8.53
2018-07-28T23:26:55.615Z,10.87
2018-07-28T23:29:23.839Z,9.40
2018-07-28T23:31:52.069Z,8.53
2018-07-28T23:34:20.280Z,7.90
2018-07-28T23:36:53.280Z,10.83
2018-07-28T23:39:22.262Z,7.30
2018-07-28T23:41:50.444Z,9.47
2018-07-28T23:44:18.719Z,8.45
2018-07-28T23:46:47.016Z,7.83
2018-07-28T23:49:15.235Z,7.10
2018-07-28T23:51:49.875Z,7.63
2018-07-28T23:54:18.143Z,8.00
2018-07-28T23:56:46.350Z,11.93
2018-07-28T23:59:14.573Z,13.00
